Terminal Aerodrome Forecast
Issued by NWS Blacksburg, VA

Home | Current Version | Previous Version | Text Only | Print | Product List | Glossary On
Versions: 1 2 3 4 5 6 7 8 9 10 11 12 13 14 15 16 17 18 19 20 21 22 23 24 25 26 27 28 29 30 31 32 33 34 35 36 37 38 39 40
000
FTUS41 KRNK 180520
TAFROA
TAF
KROA 180520Z 1806/1906 00000KT 5SM BR OVC004
      TEMPO 1806/1809 2SM BR OVC008
     FM180900 27003KT 3SM BR OVC005
      TEMPO 1809/1812 1SM BR OVC002
     FM181300 29005KT 6SM BR BKN011
     FM181500 29007KT P6SM BKN035
     FM181900 29006KT P6SM SCT040=

USA.gov is the U.S. government's official web portal to all federal, state and local government web resources and services.